Aviation Digital Data Service (ADDS)

Output produced by METARs form (0237 UTC 22 July 2017)
found at http://www.aviationweather.gov/adds/metars/
 
DTTA 220200Z 14009KT 110V170 9999 FEW030 27/22 Q1011 NOSIG
TAF DTTA 212230Z 2200/2224 29010KT 9999 FEW030 
     BECMG 2201/2203 20005KT 
     BECMG 2207/2209 11008KT 
     BECMG 2217/2219 VRB03KT
       
DTTG 220200Z 07012KT 9999 FEW030 27/22 Q1013 NOSIG
TAF DTTG 220000Z 2201/2210 09010KT 9999 FEW030
       
DTTF 220200Z 02003KT 340V080 CAVOK 28/17 Q1012 NOSIG
TAF DTTF 220000Z 2201/2210 02008KT CAVOK
       
DTMB 220230Z 11008KT 8000 NSC 27/24 Q1012
TAF DTMB 212230Z 2200/2224 VRB03KT 9999 FEW030 
     BECMG 2206/2208 12013KT
       
DTTZ 220200Z 08011KT CAVOK 33/16 Q1011 NOSIG
TAF DTTZ 212230Z 2200/2224 10019KT CAVOK 
     BECMG 2201/2203 11010KT 
     BECMG 2212/2214 VRB04KT
       
DTTD 220200Z AUTO 00000KT NCD 28/12 Q1014
DTTB 220200Z 17011KT 9999 SCT020 27/22 Q1010
TAF DTTB 220000Z 2201/2210 27011KT 9999 SCT020 
     TEMPO 2201/2203 VRB17G27KT FEW026CB
       
DTKA 220000Z 09005KT 050V140 9999 BKN020 26/21 Q1011 NOSIG
TAF DTKA 220000Z 2201/2210 26012KT 9999 BKN020 
     PROB30 
     TEMPO 2201/2203 FEW026CB 
     BECMG 2202/2204 33008KT
       
DTTX 220200Z 08005KT 9999 FEW033 26/22 Q1012 NOSIG
TAF DTTX 220000Z 2201/2210 13008KT 9999 FEW030
       
DTTJ 220000Z 12005KT CAVOK 27/23 Q1012
TAF DTTJ 212230Z 2200/2224 09010KT CAVOK